Time;durP1;ratioP1;P1;durP2;ratioP2;P2;SDS_P1;SDS_P2;PMS_P1;PMS_P2;Temp;Humidity;BMP_temperature;BMP_pressure;BME280_temperature;BME280_humidity;BME280_pressure;Samples;Min_cycle;Max_cycle;Signal;HPM_P1;HPM_P2
2021/03/24 00:00:36;;;;;;;14.90;8.03;;;;;;;5.70;73.55;101437.15;5128594;56;1136348;-78
2021/03/24 00:05:50;;;;;;;18.62;8.63;;;;;;;5.65;73.76;101437.33;5128985;56;1136471;-78
2021/03/24 00:10:55;;;;;;;25.87;11.60;;;;;;;5.66;73.75;101440.35;5132915;56;1138498;-77
2021/03/24 00:16:04;;;;;;;31.40;13.67;;;;;;;5.64;73.88;101433.49;5162250;56;1138333;-76
2021/03/24 00:21:10;;;;;;;25.27;12.90;;;;;;;5.62;73.96;101430.93;5162328;56;1138335;-75
2021/03/24 00:26:16;;;;;;;33.37;13.87;;;;;;;5.65;73.90;101432.08;5080601;56;1140664;-79
2021/03/24 00:31:23;;;;;;;36.50;15.57;;;;;;;5.62;73.96;101430.08;5077446;56;1138396;-80
2021/03/24 00:36:29;;;;;;;33.33;14.07;;;;;;;5.60;74.07;101432.77;5078014;56;1138580;-79
2021/03/24 00:41:34;;;;;;;47.95;18.02;;;;;;;5.59;74.01;101438.92;5077623;56;1138413;-77
2021/03/24 00:46:40;;;;;;;30.23;11.73;;;;;;;5.59;74.08;101443.32;5078221;56;1138595;-75
2021/03/24 00:51:45;;;;;;;29.20;12.60;;;;;;;5.58;74.24;101444.23;5078280;56;1138626;-76
2021/03/24 00:56:51;;;;;;;32.37;13.27;;;;;;;5.56;74.17;101447.37;5077826;56;1140480;-75
2021/03/24 01:01:57;;;;;;;27.20;12.00;;;;;;;5.56;74.25;101441.67;5154035;56;1138366;-76
2021/03/24 01:07:03;;;;;;;35.13;13.83;;;;;;;5.56;74.26;101448.23;5162843;56;1138405;-79
2021/03/24 01:12:10;;;;;;;25.00;11.60;;;;;;;5.57;74.21;101443.84;5162342;56;1140902;-79
2021/03/24 01:17:15;;;;;;;37.97;13.50;;;;;;;5.58;74.23;101442.47;5162780;56;1138413;-80
2021/03/24 01:22:21;;;;;;;30.02;12.78;;;;;;;5.59;74.23;101443.32;5162589;56;1138448;-76
2021/03/24 01:27:28;;;;;;;25.20;12.03;;;;;;;5.56;74.26;101446.92;5162851;56;1138541;-76
2021/03/24 01:32:34;;;;;;;23.80;11.67;;;;;;;5.57;74.22;101438.59;5162777;56;1138568;-76
2021/03/24 01:37:42;;;;;;;22.77;10.37;;;;;;;5.59;74.04;101433.67;5162895;56;1140817;-76
2021/03/24 01:42:48;;;;;;;21.37;10.87;;;;;;;5.65;74.01;101425.52;5162799;56;1141312;-78
2021/03/24 01:47:56;;;;;;;20.60;11.50;;;;;;;5.70;74.05;101434.52;5162486;56;1140883;-75
2021/03/24 01:53:02;;;;;;;23.93;11.03;;;;;;;5.70;74.03;101434.52;5162623;56;1139136;-80
2021/03/24 01:58:08;;;;;;;25.07;12.23;;;;;;;5.71;73.96;101436.69;5162131;56;1138586;-76
2021/03/24 02:03:13;;;;;;;26.03;12.43;;;;;;;5.65;74.02;101433.40;5162543;56;1138414;-75
2021/03/24 02:08:32;;;;;;;21.20;10.07;;;;;;;5.65;73.89;101436.52;5162425;56;1140512;-78
2021/03/24 02:13:42;;;;;;;21.43;11.17;;;;;;;5.64;73.86;101430.41;5162393;56;1140787;-79
2021/03/24 02:18:51;;;;;;;17.57;10.40;;;;;;;5.62;73.94;101436.17;5162335;56;1140687;-78
2021/03/24 02:24:34;;;;;;;26.47;13.57;;;;;;;5.57;74.02;101440.75;5161837;56;1138469;-78
2021/03/24 02:29:47;;;;;;;23.75;10.40;;;;;;;5.50;74.06;101434.53;5162866;56;1138497;-79
2021/03/24 02:34:57;;;;;;;16.50;9.60;;;;;;;5.45;74.16;101433.86;5162074;56;1139049;-76
2021/03/24 02:40:06;;;;;;;18.20;8.50;;;;;;;5.40;74.41;101435.81;5162443;56;1137045;-76
2021/03/24 02:45:17;;;;;;;18.00;9.17;;;;;;;5.37;74.53;101440.72;5162538;56;1136809;-79
2021/03/24 02:50:23;;;;;;;17.37;10.23;;;;;;;5.35;74.72;101430.75;5162743;56;1137187;-75
2021/03/24 02:55:31;;;;;;;24.50;11.70;;;;;;;5.32;74.82;101431.36;5162032;56;1139000;-76
2021/03/24 03:00:37;;;;;;;20.92;11.70;;;;;;;5.33;74.84;101436.55;5162593;56;1138867;-78
2021/03/24 03:05:45;;;;;;;23.38;11.85;;;;;;;5.33;74.93;101437.00;5162236;56;1139281;-80
2021/03/24 03:11:13;;;;;;;20.77;10.57;;;;;;;5.34;75.02;101435.62;5162320;56;1138833;-78
2021/03/24 03:16:28;;;;;;;22.63;12.03;;;;;;;5.35;75.01;101439.11;4866941;59;1138942;-76
2021/03/24 03:21:44;;;;;;;20.77;11.40;;;;;;;5.35;75.04;101433.86;4879942;59;1147077;-77
2021/03/24 03:26:54;;;;;;;20.80;10.13;;;;;;;5.32;75.11;101433.52;4879985;59;1138982;-80
2021/03/24 03:32:03;;;;;;;15.60;9.07;;;;;;;5.29;75.22;101434.50;4880111;59;1138703;-76
2021/03/24 03:37:10;;;;;;;27.50;9.73;;;;;;;5.25;75.62;101426.81;4879970;59;1136778;-78
2021/03/24 03:42:17;;;;;;;139.43;121.00;;;;;;;5.24;75.59;101425.95;4880167;59;1136640;-75
2021/03/24 03:47:24;;;;;;;24.67;12.60;;;;;;;5.23;75.63;101427.33;4879585;59;1142817;-77
2021/03/24 03:52:40;;;;;;;16.77;9.30;;;;;;;5.20;75.82;101420.44;5005217;57;1138630;-77
2021/03/24 03:57:58;;;;;;;19.05;9.90;;;;;;;5.19;75.87;101422.69;5016323;57;1139026;-76
2021/03/24 04:03:15;;;;;;;20.13;12.07;;;;;;;5.11;76.08;101422.12;5016920;57;1136371;-78
2021/03/24 04:08:24;;;;;;;15.13;7.87;;;;;;;5.10;76.18;101424.81;5066695;57;1138432;-76
2021/03/24 04:13:35;;;;;;;19.87;9.73;;;;;;;5.07;76.58;101432.34;5068807;57;1136449;-75
2021/03/24 04:18:50;;;;;;;33.33;24.05;;;;;;;5.06;76.61;101429.31;5113279;56;1136329;-77
2021/03/24 04:24:06;;;;;;;19.57;10.50;;;;;;;5.08;76.69;101430.11;5153274;56;1138615;-78
2021/03/24 04:29:21;;;;;;;55.07;21.90;;;;;;;5.11;77.08;101436.55;5153708;56;1138871;-78
2021/03/24 04:34:28;;;;;;;28.80;14.30;;;;;;;5.13;76.95;101429.48;5153466;56;1138556;-76
2021/03/24 04:39:59;;;;;;;20.40;10.57;;;;;;;5.10;76.91;101429.59;5122743;56;1143161;-75
2021/03/24 04:45:22;;;;;;;16.37;9.30;;;;;;;5.08;76.94;101432.73;5121128;56;1138530;-76
2021/03/24 04:50:50;;;;;;;25.70;12.17;;;;;;;5.08;77.09;101435.81;5152107;56;1139292;-75
2021/03/24 04:55:59;;;;;;;32.17;14.07;;;;;;;5.06;77.08;101442.42;5067360;56;1138733;-74
2021/03/24 05:01:24;;;;;;;25.60;12.05;;;;;;;5.06;77.27;101443.73;5066567;57;1138474;-75
2021/03/24 05:06:36;;;;;;;18.97;10.13;;;;;;;5.08;77.22;101443.68;5030565;57;1141221;-76
2021/03/24 05:12:10;;;;;;;29.85;12.70;;;;;;;5.06;77.58;101445.05;4930578;58;1138909;-75
2021/03/24 05:17:26;;;;;;;21.00;11.12;;;;;;;5.04;77.52;101454.73;5023434;56;1140949;-75
2021/03/24 05:22:46;;;;;;;18.50;11.20;;;;;;;5.09;77.53;101454.56;5098424;56;1141009;-77
2021/03/24 05:27:56;;;;;;;20.37;10.63;;;;;;;5.06;77.69;101455.53;5100143;56;1139009;-76
2021/03/24 05:33:09;;;;;;;15.23;9.03;;;;;;;5.06;77.74;101452.06;5099758;56;1138837;-76
2021/03/24 05:38:23;;;;;;;21.95;10.88;;;;;;;5.03;77.87;101449.12;5099677;56;1138704;-76
2021/03/24 05:43:51;;;;;;;20.48;10.72;;;;;;;5.01;77.95;101461.44;5067459;57;1138496;-76
2021/03/24 05:49:46;;;;;;;18.70;10.13;;;;;;;5.01;78.11;101457.51;5085856;57;1141220;-76
2021/03/24 05:55:02;;;;;;;22.67;12.78;;;;;;;4.99;78.37;101462.41;5086257;57;1139350;-75
2021/03/24 06:00:12;;;;;;;23.07;12.23;;;;;;;5.02;78.33;101470.16;5090222;56;1140522;-75
2021/03/24 06:05:24;;;;;;;36.17;15.27;;;;;;;5.05;78.33;101475.26;5099669;56;1140447;-75
2021/03/24 06:10:46;;;;;;;35.07;14.30;;;;;;;5.04;78.47;101479.64;5076703;56;1139228;-77
2021/03/24 06:16:11;;;;;;;24.80;14.33;;;;;;;5.05;78.48;101481.36;5089054;56;1138461;-77
2021/03/24 06:21:39;;;;;;;27.90;14.93;;;;;;;5.11;78.43;101474.57;5085645;56;1140604;-77
2021/03/24 06:27:11;;;;;;;77.60;28.70;;;;;;;5.14;78.56;101463.97;5082299;56;1138671;-75
2021/03/24 06:33:02;;;;;;;39.93;15.47;;;;;;;5.16;78.51;101470.01;5085377;56;1138778;-77
2021/03/24 06:38:36;;;;;;;62.20;22.83;;;;;;;5.15;78.59;101468.30;5085188;56;1139131;-76
2021/03/24 06:44:09;;;;;;;80.57;33.92;;;;;;;5.14;78.71;101472.29;5085433;56;1138837;-76
2021/03/24 06:49:37;;;;;;;26.10;15.33;;;;;;;5.20;78.66;101472.02;5085387;56;1140940;-76
2021/03/24 06:55:16;;;;;;;23.70;12.93;;;;;;;5.25;78.83;101472.25;5085388;56;1139266;-76
2021/03/24 07:00:32;;;;;;;31.90;16.10;;;;;;;5.28;78.62;101474.75;5077810;56;1138592;-77
2021/03/24 07:06:24;;;;;;;25.77;13.27;;;;;;;5.32;78.44;101476.80;5064441;57;1140633;-76
2021/03/24 07:12:25;;;;;;;27.60;15.03;;;;;;;5.35;78.61;101477.14;5063988;57;1138641;-75
2021/03/24 07:17:55;;;;;;;31.00;16.33;;;;;;;5.36;78.57;101478.36;5052806;57;1138591;-76
2021/03/24 07:23:37;;;;;;;35.60;17.67;;;;;;;5.39;78.46;101483.48;5075598;56;1140672;-75
2021/03/24 07:29:07;;;;;;;21.83;11.20;;;;;;;5.40;78.54;101492.22;5083834;56;1138921;-76
2021/03/24 07:34:58;;;;;;;31.00;14.90;;;;;;;5.45;78.43;101488.95;5084161;56;1141181;-76
2021/03/24 07:40:20;;;;;;;25.20;13.63;;;;;;;5.39;78.38;101491.36;4883057;58;1138913;-77
2021/03/24 07:45:55;;;;;;;25.10;12.03;;;;;;;5.36;78.61;101498.03;4817368;59;1139006;-77
2021/03/24 07:51:11;;;;;;;30.87;16.97;;;;;;;5.35;78.66;101500.75;4844912;59;1141163;-76
2021/03/24 07:56:39;;;;;;;98.27;40.97;;;;;;;5.33;78.91;101502.58;4876492;58;1139000;-76
2021/03/24 08:02:04;;;;;;;55.58;24.85;;;;;;;5.37;79.23;101506.76;4866104;60;1141090;-77
2021/03/24 08:07:36;;;;;;;41.77;18.50;;;;;;;5.37;79.09;101500.20;4857718;59;1138646;-76
2021/03/24 08:13:16;;;;;;;46.95;19.77;;;;;;;5.39;79.44;101498.37;4920399;57;1138529;-77
2021/03/24 08:18:43;;;;;;;72.33;26.63;;;;;;;5.39;79.47;101509.72;5045691;56;1140495;-76
2021/03/24 08:24:02;;;;;;;26.10;13.05;;;;;;;5.39;79.55;101508.87;5074947;57;1139142;-76
2021/03/24 08:29:30;;;;;;;47.90;19.47;;;;;;;5.42;79.91;101511.37;4982844;56;1140937;-75
2021/03/24 08:35:10;;;;;;;82.90;29.80;;;;;;;5.46;79.78;101511.66;4949364;58;1140757;-80
2021/03/24 08:40:45;;;;;;;92.60;32.00;;;;;;;5.44;79.96;101514.80;4877686;58;1138734;-78
2021/03/24 08:46:27;;;;;;;49.23;19.95;;;;;;;5.46;80.09;101516.44;4970007;57;1141002;-78
2021/03/24 08:51:53;;;;;;;63.90;27.60;;;;;;;5.46;79.94;101513.82;5004066;57;1140638;-78
2021/03/24 08:57:34;;;;;;;69.03;30.23;;;;;;;5.47;79.90;101517.30;4995906;56;1140794;-75
2021/03/24 09:03:10;;;;;;;76.73;30.07;;;;;;;5.48;79.90;101514.62;5002532;57;1139048;-77
2021/03/24 09:08:28;;;;;;;34.75;19.62;;;;;;;5.50;79.93;101521.11;5018845;57;1138613;-78
2021/03/24 09:13:38;;;;;;;47.83;24.60;;;;;;;5.50;79.94;101521.11;5002094;57;1140664;-80
2021/03/24 09:19:19;;;;;;;124.53;40.25;;;;;;;5.53;79.85;101515.72;5002022;57;1138413;-78
2021/03/24 09:24:45;;;;;;;50.03;21.93;;;;;;;5.60;79.81;101515.42;4985907;57;1140558;-77
2021/03/24 09:30:28;;;;;;;40.43;21.40;;;;;;;5.76;79.86;101505.14;5006130;56;1141036;-76
2021/03/24 09:35:47;;;;;;;47.27;22.33;;;;;;;5.89;79.66;101509.45;4874164;59;1141507;-77
2021/03/24 09:40:59;;;;;;;40.00;20.60;;;;;;;6.00;79.56;101499.33;4829127;59;1143002;-76
2021/03/24 09:46:08;;;;;;;;;;;;;;;6.07;78.64;101492.91;4854611;58;1140607;-77
2021/03/24 09:51:22;;;;;;;44.10;22.17;;;;;;;6.12;78.08;101489.60;4885202;60;971932;-77
2021/03/24 09:56:28;;;;;;;45.37;22.43;;;;;;;6.13;77.68;101487.37;4850657;59;1136902;-79
2021/03/24 10:01:53;;;;;;;34.57;18.00;;;;;;;6.13;77.53;101483.43;4864900;60;1140847;-75
2021/03/24 10:07:24;;;;;;;35.97;18.97;;;;;;;6.13;76.55;101490.00;4972509;56;1138916;-79
2021/03/24 10:12:58;;;;;;;36.33;20.37;;;;;;;6.14;76.60;101481.66;5040981;56;1140694;-75
2021/03/24 10:18:26;;;;;;;39.20;20.87;;;;;;;6.17;76.55;101473.65;5032573;57;1138951;-76
2021/03/24 10:23:45;;;;;;;46.00;23.57;;;;;;;6.25;76.33;101474.18;5000532;57;1141198;-77
2021/03/24 10:29:04;;;;;;;31.10;17.70;;;;;;;6.23;76.20;101471.63;5019334;57;1138803;-77
2021/03/24 10:34:29;;;;;;;39.53;21.03;;;;;;;6.29;75.81;101471.33;4997432;57;1140980;-78
2021/03/24 10:39:40;;;;;;;42.73;23.20;;;;;;;6.35;76.01;101461.02;4991787;57;1138612;-79
2021/03/24 10:45:27;;;;;;;32.53;18.17;;;;;;;6.41;76.13;101460.75;5044193;57;1138766;-77
2021/03/24 10:50:48;;;;;;;46.50;23.60;;;;;;;6.48;75.75;101463.48;5015188;57;1140846;-80
2021/03/24 10:56:33;;;;;;;43.25;22.05;;;;;;;6.54;75.64;101459.73;5026769;57;1138898;-77
2021/03/24 11:02:14;;;;;;;;;;;;;;;6.58;75.40;101456.86;5008291;58;1138897;-76
2021/03/24 11:07:44;;;;;;;48.37;22.17;;;;;;;6.59;74.58;101454.63;5043692;58;971938;-80
2021/03/24 11:13:05;;;;;;;36.85;17.65;;;;;;;6.56;74.74;101448.23;5014766;58;1136622;-78
2021/03/24 11:18:12;;;;;;;42.17;21.87;;;;;;;6.60;73.66;101444.97;5011377;58;1139024;-76
2021/03/24 11:23:27;;;;;;;35.30;20.23;;;;;;;6.58;74.35;101440.23;5014565;58;1138430;-78
2021/03/24 11:28:43;;;;;;;40.53;20.83;;;;;;;6.62;74.44;101443.13;5034744;57;1140776;-77
2021/03/24 11:34:07;;;;;;;33.65;18.95;;;;;;;6.65;74.63;101441.67;5069092;57;1138520;-80
2021/03/24 11:39:27;;;;;;;31.83;19.43;;;;;;;6.65;74.45;101435.95;5102724;56;1138541;-76
2021/03/24 11:44:33;;;;;;;40.58;22.62;;;;;;;6.67;73.89;101433.27;5151772;56;1140427;-79
2021/03/24 11:50:16;;;;;;;31.55;17.07;;;;;;;6.61;73.86;101429.13;5152976;56;1138849;-76
2021/03/24 11:55:48;;;;;;;37.13;22.30;;;;;;;6.64;73.11;101424.20;5152449;56;1138916;-78
2021/03/24 12:01:20;;;;;;;31.27;17.98;;;;;;;6.63;73.52;101416.77;5153476;56;1139110;-80
2021/03/24 12:06:45;;;;;;;66.53;32.73;;;;;;;6.62;73.42;101412.91;4935573;58;1139094;-80
2021/03/24 12:11:51;;;;;;;38.40;20.43;;;;;;;6.63;72.74;101410.20;5016236;57;1141198;-79
2021/03/24 12:17:01;;;;;;;23.73;12.63;;;;;;;6.60;72.08;101416.06;4988600;57;1139095;-77
2021/03/24 12:22:20;;;;;;;26.73;15.83;;;;;;;6.61;72.07;101412.51;4941841;57;1139210;-78
2021/03/24 12:27:33;;;;;;;29.30;16.40;;;;;;;6.66;72.28;101404.80;4900660;59;1140989;-75
2021/03/24 12:32:38;;;;;;;35.85;18.85;;;;;;;6.70;72.16;101400.27;5024329;56;1138933;-78
2021/03/24 12:37:55;;;;;;;29.12;16.93;;;;;;;6.69;71.95;101399.41;5112028;56;1139073;-80
2021/03/24 12:43:13;;;;;;;32.23;15.23;;;;;;;6.74;71.68;101395.69;5097741;56;1139207;-78
2021/03/24 12:48:29;;;;;;;33.10;17.03;;;;;;;6.75;71.43;101392.98;5102251;56;1138568;-79
2021/03/24 12:53:54;;;;;;;72.90;17.77;;;;;;;6.76;71.19;101394.70;5152494;56;1138538;-80
2021/03/24 12:59:20;;;;;;;417.27;227.57;;;;;;;6.77;70.78;101396.86;5152733;56;1138629;-79
2021/03/24 13:05:02;;;;;;;50.63;27.23;;;;;;;6.79;71.11;101398.96;5151152;56;1142802;-81
2021/03/24 13:10:38;;;;;;;46.67;26.50;;;;;;;6.78;71.25;101392.00;4886632;59;1138906;-79
2021/03/24 13:15:59;;;;;;;37.53;22.87;;;;;;;6.85;71.12;101388.16;4886477;59;1138485;-77
2021/03/24 13:21:20;;;;;;;68.70;36.05;;;;;;;6.93;71.44;101390.80;4875548;59;1138757;-77
2021/03/24 13:26:40;;;;;;;34.70;21.13;;;;;;;6.99;71.59;101390.97;4887086;59;1138691;-77
2021/03/24 13:32:11;;;;;;;43.23;24.53;;;;;;;7.08;71.24;101392.29;4832719;59;1141039;-76
2021/03/24 13:37:21;;;;;;;57.37;30.27;;;;;;;7.11;70.95;101388.20;4664868;62;1138573;-78
2021/03/24 13:42:38;;;;;;;46.37;22.87;;;;;;;7.10;70.88;101382.09;4668461;60;1139565;-79
2021/03/24 13:47:54;;;;;;;33.20;18.83;;;;;;;7.11;70.61;101381.16;4809368;60;1139254;-78
2021/03/24 13:53:03;;;;;;;43.15;20.40;;;;;;;7.12;70.42;101378.06;4818918;60;1139097;-79
2021/03/24 13:58:41;;;;;;;39.40;20.10;;;;;;;7.09;70.19;101372.95;4824760;60;1138886;-76
2021/03/24 14:04:30;;;;;;;45.10;23.60;;;;;;;7.12;70.34;101378.06;4797546;60;1138688;-76
2021/03/24 14:09:50;;;;;;;59.03;32.33;;;;;;;7.24;70.47;101364.30;5008478;57;1140917;-79
2021/03/24 14:15:26;;;;;;;36.83;20.10;;;;;;;7.29;70.03;101368.87;5064450;57;1140709;-76
2021/03/24 14:20:55;;;;;;;66.67;38.02;;;;;;;7.29;69.72;101363.61;5046936;57;1138507;-76
2021/03/24 14:26:20;;;;;;;228.00;124.90;;;;;;;7.31;69.59;101362.61;4983400;58;1138920;-74
2021/03/24 14:31:38;;;;;;;64.40;33.23;;;;;;;7.29;69.89;101361.83;4983035;58;1143114;-77
2021/03/24 14:36:51;;;;;;;32.47;19.30;;;;;;;7.29;69.23;101355.25;5065042;56;1139001;-76
2021/03/24 14:42:14;;;;;;;;;;;;;;;7.28;69.31;101356.64;5038779;57;1138535;-75
2021/03/24 14:47:49;;;;;;;28.13;17.03;;;;;;;7.29;69.35;101351.77;5071008;56;971957;-75
2021/03/24 14:53:02;;;;;;;43.57;23.80;;;;;;;7.28;69.36;101344.34;5097328;56;1136811;-77
2021/03/24 14:58:28;;;;;;;68.27;39.80;;;;;;;7.29;69.74;101344.73;5112270;56;1138436;-76
2021/03/24 15:03:34;;;;;;;333.10;189.60;;;;;;;7.36;69.77;101350.05;5042323;57;1141273;-82
2021/03/24 15:08:56;;;;;;;550.20;241.12;;;;;;;7.46;69.80;101341.23;5042344;57;1145618;-77
2021/03/24 15:14:12;;;;;;;74.80;39.45;;;;;;;7.46;69.00;101343.87;5030014;57;1145463;-76
2021/03/24 15:20:08;;;;;;;35.90;22.23;;;;;;;7.41;68.91;101348.05;5039884;57;1139147;-80
2021/03/24 15:25:30;;;;;;;57.65;27.65;;;;;;;7.37;68.73;101357.02;4868984;58;1138996;-78
2021/03/24 15:30:52;;;;;;;42.40;22.03;;;;;;;7.34;69.11;101351.05;4613659;61;1138986;-77
2021/03/24 15:36:02;;;;;;;62.73;28.85;;;;;;;7.32;69.07;101344.58;4673756;60;1139074;-77
2021/03/24 15:41:21;;;;;;;85.13;41.27;;;;;;;7.37;69.13;101353.06;4740452;60;1140847;-76
2021/03/24 15:46:31;;;;;;;51.33;26.17;;;;;;;7.43;69.40;101353.70;4865034;58;1140654;-77
2021/03/24 15:51:41;;;;;;;38.80;23.03;;;;;;;7.43;69.17;101345.33;4897077;58;1138636;-76
2021/03/24 15:56:54;;;;;;;51.20;27.17;;;;;;;7.45;69.44;101345.27;4926656;58;1138609;-76
2021/03/24 16:02:41;;;;;;;45.87;23.17;;;;;;;7.44;69.62;101345.72;4919957;58;1138718;-76
2021/03/24 16:08:07;;;;;;;48.03;22.63;;;;;;;7.39;69.24;101343.31;5021551;56;1138912;-77
2021/03/24 16:13:29;;;;;;;83.93;26.40;;;;;;;7.33;69.26;101344.94;5150714;56;1138868;-74
2021/03/24 16:19:09;;;;;;;73.43;38.90;;;;;;;7.31;69.31;101344.66;5122343;56;1139091;-76
2021/03/24 16:24:25;;;;;;;59.07;30.50;;;;;;;7.30;69.08;101338.53;5124849;56;1140928;-79
2021/03/24 16:30:06;;;;;;;96.13;44.93;;;;;;;7.31;69.21;101345.50;5091914;56;1140559;-79
2021/03/24 16:35:42;;;;;;;134.70;57.87;;;;;;;7.29;69.29;101339.92;4999752;57;1138541;-76
2021/03/24 16:41:15;;;;;;;80.73;37.43;;;;;;;7.27;69.46;101345.73;4987812;57;1150239;-77
2021/03/24 16:46:59;;;;;;;61.97;28.53;;;;;;;7.26;69.36;101339.61;4992557;57;1138790;-76
2021/03/24 16:52:37;;;;;;;61.23;28.00;;;;;;;7.19;69.26;101342.16;5150478;56;1138614;-75
2021/03/24 16:58:17;;;;;;;56.57;27.73;;;;;;;7.20;69.29;101341.23;5119210;56;1141014;-77
2021/03/24 17:03:44;;;;;;;67.53;29.63;;;;;;;7.23;69.32;101340.23;5000220;56;1141512;-79
2021/03/24 17:09:03;;;;;;;48.48;25.75;;;;;;;7.23;69.33;101336.28;4884388;57;1141011;-75
2021/03/24 17:14:45;;;;;;;59.87;30.27;;;;;;;7.18;69.29;101338.31;5045475;57;1138980;-79
2021/03/24 17:20:17;;;;;;;332.32;229.25;;;;;;;7.11;69.27;101348.28;5139258;56;1138909;-79
2021/03/24 17:25:36;;;;;;;93.13;66.90;;;;;;;7.02;69.36;101347.44;5127777;56;1143291;-74
2021/03/24 17:30:41;;;;;;;76.67;49.07;;;;;;;6.97;69.02;101352.91;5079477;57;1141409;-74
2021/03/24 17:36:01;;;;;;;436.67;186.03;;;;;;;6.92;69.23;101355.37;4979342;58;1139149;-77
2021/03/24 17:41:17;;;;;;;117.63;41.17;;;;;;;6.88;69.25;101350.71;5043427;57;1142578;-78
2021/03/24 17:46:37;;;;;;;115.23;51.93;;;;;;;6.86;68.91;101355.69;5043004;58;1141108;-76
2021/03/24 17:52:25;;;;;;;182.27;70.17;;;;;;;6.86;69.32;101354.38;5040243;57;1140808;-76
2021/03/24 17:57:53;;;;;;;67.13;34.83;;;;;;;6.88;69.60;101348.08;5071919;57;1140750;-77
2021/03/24 18:03:30;;;;;;;113.20;57.38;;;;;;;6.90;69.72;101347.55;5010278;57;1138571;-78
2021/03/24 18:08:43;;;;;;;135.97;56.73;;;;;;;6.89;69.67;101349.79;4992515;57;1140991;-79
2021/03/24 18:14:20;;;;;;;273.50;102.33;;;;;;;6.85;69.76;101346.09;5018280;57;1140839;-73
2021/03/24 18:19:54;;;;;;;117.23;49.53;;;;;;;6.89;69.79;101349.79;4987886;57;1144950;-75
2021/03/24 18:25:22;;;;;;;109.63;46.60;;;;;;;6.96;69.99;101355.15;4935074;58;1143112;-79
2021/03/24 18:30:35;;;;;;;121.60;49.70;;;;;;;6.99;70.25;101352.37;5025703;57;1143423;-76
2021/03/24 18:35:42;;;;;;;137.23;58.87;;;;;;;6.95;70.30;101342.92;5029453;57;1140740;-77
2021/03/24 18:40:50;;;;;;;496.20;257.15;;;;;;;6.94;70.42;101344.31;5030854;57;1141093;-75
2021/03/24 18:46:00;;;;;;;132.93;59.93;;;;;;;6.92;70.50;101338.27;5059533;57;1143326;-76
2021/03/24 18:51:29;;;;;;;150.68;73.95;;;;;;;6.89;70.57;101337.95;5060732;57;1141034;-79
2021/03/24 18:56:50;;;;;;;124.73;59.93;;;;;;;6.85;70.56;101338.20;5060187;57;1140676;-76
2021/03/24 19:01:56;;;;;;;200.18;83.70;;;;;;;6.77;70.61;101335.08;5030594;57;1140528;-76
2021/03/24 19:07:09;;;;;;;206.07;86.83;;;;;;;6.74;70.63;101334.77;5039013;57;1142639;-77
2021/03/24 19:12:36;;;;;;;204.40;85.20;;;;;;;6.77;70.76;101333.30;5084336;57;1142705;-73
2021/03/24 19:17:57;;;;;;;193.30;78.03;;;;;;;6.79;70.87;101334.55;5033141;57;1142914;-75
2021/03/24 19:23:20;;;;;;;133.03;57.40;;;;;;;6.70;70.95;101333.23;4978590;58;1140618;-81
2021/03/24 19:28:25;;;;;;;106.43;49.17;;;;;;;6.56;70.71;101331.27;4990243;57;1141235;-76
2021/03/24 19:33:46;;;;;;;106.60;53.63;;;;;;;6.48;71.04;101330.77;5013411;57;1141019;-75
2021/03/24 19:39:11;;;;;;;88.87;45.47;;;;;;;6.46;71.25;101325.19;4963232;57;1141034;-74
2021/03/24 19:44:36;;;;;;;134.80;55.73;;;;;;;6.45;71.41;101324.80;5024008;57;1139002;-80
2021/03/24 19:49:43;;;;;;;152.13;71.77;;;;;;;6.45;71.13;101330.06;4870369;59;1143279;-79
2021/03/24 19:54:49;;;;;;;154.70;76.20;;;;;;;6.46;71.32;101322.11;4811823;59;1142752;-77
2021/03/24 20:00:36;;;;;;;87.87;44.53;;;;;;;6.55;71.67;101321.69;5016810;57;1142803;-81
2021/03/24 20:05:49;;;;;;;85.03;40.57;;;;;;;6.54;71.31;101317.81;5022780;57;1138513;-77
2021/03/24 20:10:58;;;;;;;77.88;40.22;;;;;;;6.51;71.51;101314.86;4990684;58;1138641;-77
2021/03/24 20:16:11;;;;;;;52.53;27.95;;;;;;;6.41;71.18;101312.76;5045564;57;1138647;-81
2021/03/24 20:21:30;;;;;;;127.60;65.83;;;;;;;6.35;71.38;101306.86;5036624;57;1138797;-81
2021/03/24 20:26:36;;;;;;;79.83;42.10;;;;;;;6.29;71.40;101304.52;4963897;57;1140452;-83
2021/03/24 20:32:04;;;;;;;72.00;33.53;;;;;;;6.26;71.42;101302.02;4964561;58;1138493;-78
2021/03/24 20:37:19;;;;;;;82.27;37.37;;;;;;;6.25;71.27;101295.55;4964090;58;1138576;-78
2021/03/24 20:42:38;;;;;;;75.73;37.17;;;;;;;6.26;71.55;101291.52;4992726;57;1140573;-76
2021/03/24 20:47:44;;;;;;;70.00;34.10;;;;;;;6.31;71.60;101287.36;5018962;57;1140698;-79
2021/03/24 20:52:51;;;;;;;58.55;29.85;;;;;;;6.37;71.75;101291.48;4997794;57;1139152;-74
2021/03/24 20:57:58;;;;;;;62.27;29.97;;;;;;;6.33;71.58;101290.31;5059079;57;1139032;-76
2021/03/24 21:03:08;;;;;;;65.28;33.28;;;;;;;6.28;71.57;101284.87;5038458;57;1138874;-79
2021/03/24 21:08:18;;;;;;;71.87;35.67;;;;;;;6.22;71.82;101287.81;5027064;57;1139218;-77
2021/03/24 21:13:23;;;;;;;70.17;35.13;;;;;;;6.18;71.96;101297.61;5015423;57;1139399;-78
2021/03/24 21:18:36;;;;;;;230.77;84.87;;;;;;;6.13;71.97;101293.48;5086410;57;1139048;-76
2021/03/24 21:23:43;;;;;;;200.77;76.43;;;;;;;6.09;71.79;101290.63;5067943;57;1143086;-80
2021/03/24 21:28:50;;;;;;;216.33;82.93;;;;;;;6.12;72.15;101291.77;5026002;57;1143200;-75
2021/03/24 21:33:56;;;;;;;173.85;65.12;;;;;;;6.17;72.32;101291.96;5041215;57;1143153;-80
2021/03/24 21:39:02;;;;;;;207.18;78.83;;;;;;;6.16;72.04;101289.41;5016694;57;1141227;-82
2021/03/24 21:44:09;;;;;;;104.55;44.50;;;;;;;6.19;72.35;101285.33;5087912;57;1141067;-83
2021/03/24 21:49:16;;;;;;;72.07;34.60;;;;;;;6.18;72.18;101279.68;5065322;57;1140999;-77
2021/03/24 21:54:23;;;;;;;68.10;32.05;;;;;;;6.17;72.13;101280.60;5039017;57;1138576;-77
2021/03/24 21:59:42;;;;;;;60.95;30.60;;;;;;;6.14;71.95;101274.17;4988936;57;1138973;-78
2021/03/24 22:04:48;;;;;;;63.33;30.13;;;;;;;6.09;71.94;101274.88;4998502;57;1138829;-79
2021/03/24 22:09:54;;;;;;;44.83;24.57;;;;;;;6.11;71.88;101273.85;5002137;57;1145146;-79
2021/03/24 22:15:13;;;;;;;119.60;53.90;;;;;;;6.15;71.84;101271.94;5001913;57;1141328;-80
2021/03/24 22:20:31;;;;;;;72.70;34.10;;;;;;;6.18;72.21;101273.97;5022040;57;1143335;-79
2021/03/24 22:25:37;;;;;;;94.07;43.87;;;;;;;6.15;72.15;101271.48;5076046;57;1138646;-79
2021/03/24 22:31:21;;;;;;;110.47;50.53;;;;;;;6.11;72.35;101271.72;5076434;57;1138837;-79
2021/03/24 22:36:33;;;;;;;183.97;84.47;;;;;;;5.96;72.18;101271.48;5076198;57;1140544;-80
2021/03/24 22:41:39;;;;;;;135.45;69.87;;;;;;;5.86;72.60;101266.25;5076482;57;1141569;-80
2021/03/24 22:47:11;;;;;;;136.53;57.13;;;;;;;5.83;72.92;101265.53;5059321;57;1140717;-79
2021/03/24 22:52:24;;;;;;;125.60;54.60;;;;;;;5.85;72.94;101260.60;4850663;60;1140603;-79
2021/03/24 22:57:41;;;;;;;;;;;;;;;5.85;72.94;101260.60;4854070;60;1143387;-80
2021/03/24 23:02:47;;;;;;;144.37;57.37;;;;;;;5.93;73.23;101261.15;4862727;60;974435;-79
2021/03/24 23:07:53;;;;;;;141.00;61.10;;;;;;;5.99;73.39;101262.62;4865737;60;1139155;-77
2021/03/24 23:13:07;;;;;;;148.30;61.37;;;;;;;5.91;72.72;101264.30;4864793;59;1141272;-77
2021/03/24 23:18:49;;;;;;;159.03;63.17;;;;;;;5.79;72.97;101250.41;4850634;60;1141316;-80
2021/03/24 23:23:55;;;;;;;133.73;56.80;;;;;;;5.79;72.97;101250.41;4843804;60;1141040;-77
2021/03/24 23:29:06;;;;;;;117.08;50.43;;;;;;;5.70;72.55;101261.30;4926038;58;1141010;-77
2021/03/24 23:34:12;;;;;;;120.08;48.78;;;;;;;5.53;72.11;101255.97;5012051;58;1141110;-79
2021/03/24 23:39:19;;;;;;;127.60;55.27;;;;;;;5.42;72.12;101251.66;5012192;57;1140692;-76
2021/03/24 23:44:25;;;;;;;106.90;43.13;;;;;;;5.38;72.32;101252.25;5011611;58;1142750;-78
2021/03/24 23:49:30;;;;;;;190.57;62.17;;;;;;;5.36;72.56;101245.37;5008943;57;1140777;-78
2021/03/24 23:54:36;;;;;;;324.23;98.03;;;;;;;5.27;72.04;101240.08;5012031;58;1140977;-79